Time;durP1;ratioP1;P1;durP2;ratioP2;P2;SDS_P1;SDS_P2;PMS_P1;PMS_P2;Temp;Humidity;BMP_temperature;BMP_pressure;BME280_temperature;BME280_humidity;BME280_pressure;Samples;Min_cycle;Max_cycle;Signal;HPM_P1;HPM_P2
2023/08/02 00:01:48;;;;;;;16.00;12.38;;;;;;;-145.63;55.62;38617.50;5027105;28;20323;-69
2023/08/02 00:04:14;;;;;;;16.38;11.32;;;;;;;-145.63;55.86;38693.75;5034374;28;20060;-69
2023/08/02 00:06:40;;;;;;;14.65;12.45;;;;;;;-145.63;56.10;38678.13;5036595;28;20026;-68
2023/08/02 00:09:06;;;;;;;16.10;12.07;;;;;;;-145.63;55.92;38658.56;5024888;28;20029;-69
2023/08/02 00:11:31;;;;;;;20.52;12.07;;;;;;;-145.63;56.03;38666.38;5041890;28;20025;-68
2023/08/02 00:13:57;;;;;;;15.70;12.27;;;;;;;-145.63;55.56;38605.78;5025704;28;20033;-68
2023/08/02 00:16:23;;;;;;;16.08;12.70;;;;;;;-145.63;55.70;38684.00;5034944;28;20026;-68
2023/08/02 00:18:48;;;;;;;16.35;11.57;;;;;;;-145.63;55.81;38680.06;5035132;28;20026;-68
2023/08/02 00:21:14;;;;;;;18.83;12.32;;;;;;;-145.63;55.67;38644.88;5025588;28;20037;-68
2023/08/02 00:23:39;;;;;;;12.95;11.63;;;;;;;-145.63;56.15;38703.53;5042524;28;20025;-68
2023/08/02 00:26:06;;;;;;;12.77;11.35;;;;;;;-145.63;55.92;38674.22;5042649;28;20048;-69
2023/08/02 00:28:31;;;;;;;14.98;11.55;;;;;;;-145.63;56.48;38689.84;5029369;28;20033;-68
2023/08/02 00:30:57;;;;;;;14.75;11.65;;;;;;;-145.63;56.32;38674.22;5022524;28;20030;-69
2023/08/02 00:33:23;;;;;;;14.48;12.05;;;;;;;-145.63;56.17;38680.06;5026368;28;20022;-68
2023/08/02 00:35:49;;;;;;;14.18;11.77;;;;;;;-145.63;56.47;38670.28;5031102;28;20030;-67
2023/08/02 00:38:15;;;;;;;14.50;12.15;;;;;;;-145.63;56.36;38699.63;5042069;28;20037;-69
2023/08/02 00:40:41;;;;;;;15.07;12.63;;;;;;;-145.63;56.22;38687.91;5032805;28;20025;-69
2023/08/02 00:43:07;;;;;;;19.60;13.35;;;;;;;-145.63;56.45;38732.88;5034928;28;20338;-68
2023/08/02 00:45:33;;;;;;;15.90;13.77;;;;;;;-145.63;56.45;38713.31;5027195;28;20037;-68
2023/08/02 00:48:00;;;;;;;17.58;13.32;;;;;;;-145.63;56.34;38674.22;5026279;28;20030;-68
2023/08/02 00:50:29;;;;;;;15.50;12.90;;;;;;;-145.63;56.51;38699.63;5026284;28;20026;-68
2023/08/02 00:52:55;;;;;;;18.92;13.68;;;;;;;-145.63;56.20;38668.34;5057304;28;20339;-68
2023/08/02 00:55:21;;;;;;;18.95;13.77;;;;;;;-145.63;56.28;38676.16;5034427;28;20037;-68
2023/08/02 00:57:47;;;;;;;19.73;13.77;;;;;;;-145.63;56.35;38703.53;5041302;28;20029;-68
2023/08/02 01:00:13;;;;;;;16.65;14.02;;;;;;;-145.63;56.47;38711.38;5043435;28;20033;-68
2023/08/02 01:02:39;;;;;;;17.48;13.15;;;;;;;-145.63;56.49;38654.66;5025580;28;20230;-68
2023/08/02 01:05:05;;;;;;;15.88;13.27;;;;;;;-145.63;56.54;38711.38;5043165;28;20049;-68
2023/08/02 01:07:49;;;;;;;15.65;13.98;;;;;;;-145.63;56.36;38652.69;5032819;28;20026;-68
2023/08/02 01:10:39;;;;;;;20.45;14.20;;;;;;;-145.63;56.51;38701.59;5036124;28;20048;-68
2023/08/02 01:13:06;;;;;;;19.05;12.80;;;;;;;-145.63;56.32;38699.63;5036502;28;20025;-68
2023/08/02 01:15:34;;;;;;;17.25;14.18;;;;;;;-145.63;56.42;38210.81;5030315;28;20033;-68
2023/08/02 01:18:00;;;;;;;16.30;14.55;;;;;;;-145.63;56.24;38736.78;5045131;28;20225;-67
2023/08/02 01:20:26;;;;;;;17.45;14.20;;;;;;;-145.63;56.31;38715.28;5025734;28;20298;-67
2023/08/02 01:22:52;;;;;;;15.48;13.85;;;;;;;-145.63;56.68;38672.25;5040778;28;20022;-68
2023/08/02 01:25:18;;;;;;;18.52;14.27;;;;;;;-145.63;56.67;38713.31;5034535;28;20029;-67
2023/08/02 01:27:51;;;;;;;19.80;15.02;;;;;;;-145.63;56.57;38701.59;5031441;28;20021;-68
2023/08/02 01:30:20;;;;;;;17.08;14.02;;;;;;;-145.63;56.54;38693.75;5042952;28;20067;-68
2023/08/02 01:32:46;;;;;;;20.10;14.98;;;;;;;-145.63;56.52;38709.41;5028135;28;20028;-69
2023/08/02 01:35:13;;;;;;;19.52;15.45;;;;;;;-145.63;56.64;38707.44;5028355;28;20026;-68
2023/08/02 01:37:42;;;;;;;22.45;16.90;;;;;;;-145.63;56.61;38283.16;5038840;28;20037;-69
2023/08/02 01:40:09;;;;;;;22.27;17.70;;;;;;;-145.63;57.28;38744.59;5035735;28;20093;-69
2023/08/02 01:42:34;;;;;;;22.55;17.25;;;;;;;-145.63;57.15;38742.66;5040105;28;20068;-68
2023/08/02 01:45:00;;;;;;;24.23;16.88;;;;;;;-145.63;56.92;38746.56;5025040;28;20030;-67
2023/08/02 01:47:26;;;;;;;23.70;16.58;;;;;;;-145.63;57.22;38732.88;5025115;28;20022;-67
2023/08/02 01:49:52;;;;;;;18.90;16.27;;;;;;;-145.63;56.97;38740.69;5040092;28;20045;-67
2023/08/02 01:52:17;;;;;;;21.70;17.35;;;;;;;-145.63;56.81;38719.19;5033968;28;20069;-68
2023/08/02 01:54:43;;;;;;;20.08;16.38;;;;;;;-145.63;56.83;38725.06;5030259;28;20032;-68
2023/08/02 01:57:09;;;;;;;19.70;16.35;;;;;;;-145.63;56.81;38713.31;5044791;28;20029;-68
2023/08/02 01:59:35;;;;;;;17.85;15.38;;;;;;;-145.63;56.72;38730.91;5044669;28;20318;-67
2023/08/02 02:02:01;;;;;;;20.13;16.48;;;;;;;-145.63;56.85;38727.00;5028161;28;20105;-67
2023/08/02 02:04:27;;;;;;;18.80;15.32;;;;;;;-145.63;57.11;38719.19;5036315;28;20057;-67
2023/08/02 02:06:52;;;;;;;20.65;15.85;;;;;;;-145.63;57.18;38742.66;5039641;28;20030;-68
2023/08/02 02:09:18;;;;;;;19.75;15.55;;;;;;;-145.63;56.95;38695.72;5044438;28;20037;-68
2023/08/02 02:11:44;;;;;;;20.92;16.00;;;;;;;-145.63;57.01;38709.41;5044224;28;20036;-68
2023/08/02 02:14:09;;;;;;;21.55;17.23;;;;;;;-145.63;56.97;38795.44;5026795;28;20038;-69
2023/08/02 02:16:35;;;;;;;24.13;17.23;;;;;;;-145.63;57.00;38687.91;5037095;28;20025;-67
2023/08/02 02:19:20;;;;;;;20.52;16.20;;;;;;;-145.63;57.14;38738.75;5034090;28;20033;-67
2023/08/02 02:21:46;;;;;;;27.75;18.48;;;;;;;-145.63;57.18;38697.69;5043950;28;20077;-67
2023/08/02 02:24:12;;;;;;;22.92;17.83;;;;;;;-145.63;57.11;38727.00;5042892;28;20032;-67
2023/08/02 02:26:37;;;;;;;19.35;16.95;;;;;;;-145.63;57.19;38734.81;5024333;28;20017;-67
2023/08/02 02:29:03;;;;;;;21.52;18.00;;;;;;;-145.63;57.24;38764.16;5024148;28;20091;-66
2023/08/02 02:31:28;;;;;;;25.70;19.02;;;;;;;-145.63;57.35;38750.47;5036031;28;20029;-67
2023/08/02 02:33:54;;;;;;;29.17;20.15;;;;;;;-145.63;57.36;38715.28;5033402;28;20052;-67
2023/08/02 02:36:20;;;;;;;27.63;19.52;;;;;;;-145.63;57.62;38738.75;5029560;28;20064;-67
2023/08/02 02:38:45;;;;;;;30.05;23.67;;;;;;;-145.63;58.01;38742.66;5034878;28;20099;-67
2023/08/02 02:41:11;;;;;;;43.67;30.35;;;;;;;-145.63;58.51;38738.75;5032537;28;20311;-67
2023/08/02 02:43:37;;;;;;;35.00;27.40;;;;;;;-145.63;58.89;38785.66;5036656;28;20029;-68
2023/08/02 02:46:02;;;;;;;37.65;30.58;;;;;;;-145.63;59.03;38750.47;5035772;28;20303;-67
2023/08/02 02:48:28;;;;;;;38.63;29.20;;;;;;;-145.63;58.78;38740.69;5022780;28;20467;-67
2023/08/02 02:50:54;;;;;;;40.90;31.13;;;;;;;-145.63;58.80;38707.44;5023870;28;20072;-68
2023/08/02 02:53:20;;;;;;;37.15;29.90;;;;;;;-145.63;58.78;38748.50;5042021;28;20030;-67
2023/08/02 02:55:46;;;;;;;31.10;27.58;;;;;;;-145.63;58.81;38777.84;5039049;28;20030;-68
2023/08/02 02:58:12;;;;;;;36.85;28.42;;;;;;;-145.63;58.73;38744.59;5041636;28;20051;-68
2023/08/02 03:00:37;;;;;;;33.97;29.05;;;;;;;-145.63;58.66;38762.22;5038762;28;20080;-68
2023/08/02 03:03:03;;;;;;;38.45;28.90;;;;;;;-145.63;58.63;38711.38;5024142;28;20056;-67
2023/08/02 03:05:29;;;;;;;33.53;28.27;;;;;;;-145.63;58.62;38709.41;5033247;28;20025;-68
2023/08/02 03:07:54;;;;;;;33.42;26.90;;;;;;;-145.63;58.16;38760.25;5040171;28;20237;-67
2023/08/02 03:10:20;;;;;;;34.85;27.88;;;;;;;-145.63;58.34;38703.53;5033928;28;20109;-67
2023/08/02 03:12:46;;;;;;;38.60;27.85;;;;;;;-145.63;58.32;38727.00;5037567;28;20022;-68
2023/08/02 03:15:11;;;;;;;41.03;31.13;;;;;;;-145.63;58.32;38719.19;5023350;28;20026;-68
2023/08/02 03:17:37;;;;;;;38.60;29.05;;;;;;;-145.63;58.01;38678.13;5023540;28;20366;-68
2023/08/02 03:20:03;;;;;;;40.50;31.58;;;;;;;-145.63;58.07;38695.72;5023490;28;20053;-66
2023/08/02 03:22:30;;;;;;;39.47;31.02;;;;;;;-145.63;58.00;38709.41;5035643;28;20034;-66
2023/08/02 03:24:55;;;;;;;38.38;30.73;;;;;;;-145.63;57.97;38699.63;5036641;28;20072;-67
2023/08/02 03:27:21;;;;;;;39.15;30.23;;;;;;;-145.63;57.74;38707.44;5025284;28;20018;-68
2023/08/02 03:29:47;;;;;;;41.88;30.27;;;;;;;-145.63;57.72;38670.28;5043075;28;20033;-68
2023/08/02 03:32:12;;;;;;;35.58;28.70;;;;;;;-145.63;57.32;38672.25;5026461;28;20029;-68
2023/08/02 03:34:38;;;;;;;29.77;25.20;;;;;;;-145.63;57.36;38621.41;5038724;28;20056;-68
2023/08/02 03:37:04;;;;;;;34.42;25.95;;;;;;;-145.63;57.13;38631.19;5040746;28;20162;-69
2023/08/02 03:39:30;;;;;;;34.58;25.35;;;;;;;-145.63;57.07;38648.78;5039941;28;20261;-69
2023/08/02 03:41:55;;;;;;;27.08;22.25;;;;;;;-145.63;57.45;38676.16;5037914;28;20026;-68
2023/08/02 03:44:21;;;;;;;39.00;25.85;;;;;;;-145.63;57.00;38631.19;5024807;28;20034;-68
2023/08/02 03:46:47;;;;;;;35.03;25.20;;;;;;;-145.63;57.14;38656.59;5023019;28;20064;-67
2023/08/02 03:49:13;;;;;;;31.88;23.83;;;;;;;-145.63;57.11;38619.47;5029301;28;20026;-67
2023/08/02 03:51:39;;;;;;;24.70;21.20;;;;;;;-145.63;56.83;38611.63;5027262;28;20032;-67
2023/08/02 03:54:05;;;;;;;26.30;20.27;;;;;;;-145.63;56.41;38603.81;5043066;28;20025;-67
2023/08/02 03:56:30;;;;;;;27.58;20.20;;;;;;;-145.63;56.26;38599.91;5028631;28;20088;-68
2023/08/02 03:58:56;;;;;;;22.60;19.27;;;;;;;-145.63;56.07;38562.75;5042832;28;20033;-68
2023/08/02 04:01:22;;;;;;;29.73;21.33;;;;;;;-145.63;55.95;38545.16;5033012;28;20029;-69
2023/08/02 04:03:48;;;;;;;26.20;20.38;;;;;;;-145.63;56.03;38531.47;5028407;28;20087;-68
2023/08/02 04:06:13;;;;;;;24.67;20.33;;;;;;;-145.63;55.84;38547.09;5042410;28;20025;-68
2023/08/02 04:08:39;;;;;;;23.08;19.02;;;;;;;-145.63;55.91;38533.41;5023014;28;20029;-68
2023/08/02 04:11:05;;;;;;;29.85;20.65;;;;;;;-145.63;56.12;38562.75;5038607;28;20025;-68
2023/08/02 04:13:32;;;;;;;28.17;19.35;;;;;;;-145.63;55.98;38547.09;5032493;28;20303;-68
2023/08/02 04:15:57;;;;;;;26.88;20.25;;;;;;;-145.63;55.91;38560.78;5035199;28;20038;-68
2023/08/02 04:18:23;;;;;;;22.73;20.05;;;;;;;-145.63;56.06;38543.19;5034886;28;20028;-68
2023/08/02 04:20:49;;;;;;;22.30;19.17;;;;;;;-145.63;56.23;38572.53;5041411;28;20030;-68
2023/08/02 04:23:14;;;;;;;25.35;19.38;;;;;;;-145.63;56.16;38562.75;5026465;28;20038;-68
2023/08/02 04:25:40;;;;;;;21.23;18.95;;;;;;;-145.63;55.76;38535.38;5033512;28;20192;-69
2023/08/02 04:28:06;;;;;;;21.45;18.80;;;;;;;-145.63;55.36;38488.44;5034176;28;20033;-68
2023/08/02 04:30:32;;;;;;;21.65;19.35;;;;;;;-145.63;55.16;38513.88;5044219;28;20036;-67
2023/08/02 04:32:57;;;;;;;21.35;17.95;;;;;;;-145.63;55.03;38472.81;5029665;28;20022;-67
2023/08/02 04:35:23;;;;;;;18.55;15.57;;;;;;;-145.63;54.70;38509.97;5030131;28;20308;-66
2023/08/02 04:37:49;;;;;;;21.27;17.33;;;;;;;-145.63;54.74;38480.63;5038096;28;20214;-67
2023/08/02 04:40:15;;;;;;;21.98;16.05;;;;;;;-145.63;54.71;38470.84;5037311;28;20068;-68
2023/08/02 04:42:41;;;;;;;17.95;15.40;;;;;;;-145.63;54.20;38453.25;5026055;28;20299;-68
2023/08/02 04:45:08;;;;;;;18.38;14.60;;;;;;;-145.63;54.11;38466.94;5026113;28;20056;-68
2023/08/02 04:47:33;;;;;;;20.33;14.50;;;;;;;-145.63;54.39;38459.13;5045380;28;20322;-67
2023/08/02 04:50:01;;;;;;;17.35;13.95;;;;;;;-145.63;53.98;38437.59;5031522;28;20030;-68
2023/08/02 04:52:26;;;;;;;16.90;13.13;;;;;;;-145.63;53.71;38371.13;5036079;28;20025;-68
2023/08/02 04:54:52;;;;;;;17.92;16.23;;;;;;;-145.63;53.65;38363.31;5040328;28;20042;-69
2023/08/02 04:57:18;;;;;;;17.63;15.57;;;;;;;-145.63;53.65;38404.38;5037254;28;20037;-66
2023/08/02 04:59:43;;;;;;;21.00;18.58;;;;;;;-145.63;53.64;38420.00;5046108;28;20029;-67
2023/08/02 05:02:09;;;;;;;20.95;18.48;;;;;;;-145.63;53.88;38414.16;5029840;28;20490;-66
2023/08/02 05:04:35;;;;;;;23.65;19.13;;;;;;;-145.63;53.98;38410.22;5036806;28;20057;-68
2023/08/02 05:07:00;;;;;;;23.58;20.63;;;;;;;-145.63;53.78;38441.53;5039163;28;20044;-68
2023/08/02 05:09:26;;;;;;;22.08;19.75;;;;;;;-145.63;53.67;38388.72;5027743;28;20029;-69
2023/08/02 05:11:52;;;;;;;22.45;18.95;;;;;;;-145.63;53.50;38392.63;5045453;28;20037;-68
2023/08/02 05:14:18;;;;;;;23.88;19.52;;;;;;;-145.63;53.39;38359.41;5028470;28;20061;-69
2023/08/02 05:16:44;;;;;;;24.23;19.77;;;;;;;-145.63;53.45;38322.25;5025411;28;20194;-68
2023/08/02 05:19:10;;;;;;;20.38;17.10;;;;;;;-145.63;53.48;38328.13;5033161;28;20025;-68
2023/08/02 05:21:35;;;;;;;22.08;19.80;;;;;;;-145.63;52.93;38363.31;5042049;28;20044;-68
2023/08/02 05:24:01;;;;;;;21.83;19.30;;;;;;;-145.63;52.94;38355.50;5026450;28;20068;-68
2023/08/02 05:26:27;;;;;;;23.05;20.60;;;;;;;-145.63;53.18;38378.94;5026991;28;20141;-68
2023/08/02 05:28:53;;;;;;;23.70;21.40;;;;;;;-145.63;52.91;38341.81;5037702;28;20075;-69
2023/08/02 05:31:18;;;;;;;23.35;21.02;;;;;;;-145.63;52.98;38347.66;5036388;28;20038;-69
2023/08/02 05:33:44;;;;;;;22.45;20.25;;;;;;;-145.63;53.04;38281.19;5033751;28;20030;-69
2023/08/02 05:36:12;;;;;;;22.90;20.15;;;;;;;-145.63;52.95;38302.69;5030782;28;20029;-69
2023/08/02 05:38:38;;;;;;;23.00;18.08;;;;;;;-145.63;52.60;38304.66;5025114;28;20026;-68
2023/08/02 05:41:04;;;;;;;19.92;17.63;;;;;;;-145.63;52.48;38247.94;5032167;28;20018;-69
2023/08/02 05:43:30;;;;;;;20.90;18.58;;;;;;;-145.63;52.52;38335.94;5024023;28;20117;-70
2023/08/02 05:45:57;;;;;;;21.33;18.20;;;;;;;-145.63;52.25;38261.63;5029431;28;20017;-69
2023/08/02 05:48:23;;;;;;;21.63;18.98;;;;;;;-145.63;51.84;38251.84;5043921;28;20302;-69
2023/08/02 05:50:50;;;;;;;19.88;16.85;;;;;;;-145.63;51.58;38173.66;5024829;28;20075;-69
2023/08/02 05:53:15;;;;;;;20.27;18.10;;;;;;;-145.63;51.88;38218.63;5040976;28;20037;-69
2023/08/02 05:55:41;;;;;;;21.88;18.10;;;;;;;-145.63;51.50;38179.50;5044713;28;20222;-69
2023/08/02 05:58:07;;;;;;;20.67;17.20;;;;;;;-145.63;51.76;38146.28;5044760;28;20029;-68
2023/08/02 06:00:32;;;;;;;27.23;22.52;;;;;;;-145.63;51.65;38187.34;5042642;28;20030;-68
2023/08/02 06:02:58;;;;;;;22.33;20.02;;;;;;;-145.63;51.52;38130.63;5024501;28;20056;-68
2023/08/02 06:05:24;;;;;;;21.73;19.55;;;;;;;-145.63;51.64;38169.75;5042101;28;20079;-68
2023/08/02 06:07:49;;;;;;;24.55;20.88;;;;;;;-145.63;51.75;38218.63;5031720;28;20121;-68
2023/08/02 06:10:15;;;;;;;23.35;20.90;;;;;;;-145.63;51.63;38161.91;5032639;28;20083;-69
2023/08/02 06:12:41;;;;;;;22.55;18.85;;;;;;;-145.63;51.57;38140.41;5040913;28;20026;-67
2023/08/02 06:15:07;;;;;;;19.60;17.60;;;;;;;-145.63;51.56;38081.75;5029468;28;20318;-68
2023/08/02 06:17:33;;;;;;;18.98;16.98;;;;;;;-145.63;51.28;38175.59;5048797;28;20265;-67
2023/08/02 06:19:59;;;;;;;20.80;18.60;;;;;;;-145.63;50.88;38115.00;5034525;28;20199;-67
2023/08/02 06:22:25;;;;;;;25.65;19.13;;;;;;;-145.63;51.39;38144.31;5032998;28;20018;-69
2023/08/02 06:24:50;;;;;;;21.08;17.20;;;;;;;-145.63;51.57;38142.38;5034128;28;20088;-69
2023/08/02 06:27:16;;;;;;;21.77;17.63;;;;;;;-145.63;51.58;38105.22;5033266;28;20034;-69
2023/08/02 06:29:42;;;;;;;18.08;15.40;;;;;;;-145.63;51.60;38115.00;5033924;28;20046;-69
2023/08/02 06:32:08;;;;;;;18.55;16.48;;;;;;;-145.63;51.33;38107.19;5036256;28;20315;-67
2023/08/02 06:34:33;;;;;;;17.23;14.52;;;;;;;-145.63;51.15;38132.59;5034435;28;20029;-67
2023/08/02 06:36:59;;;;;;;14.98;13.02;;;;;;;-145.63;51.31;38091.53;5033160;28;20283;-68
2023/08/02 06:39:25;;;;;;;14.30;12.73;;;;;;;-145.63;50.90;38071.97;5033223;28;20350;-68
2023/08/02 06:41:51;;;;;;;16.48;13.68;;;;;;;-145.63;51.27;38071.97;5031242;28;20041;-69
2023/08/02 06:44:16;;;;;;;16.13;13.23;;;;;;;-145.63;51.32;38032.88;5034011;28;20084;-68
2023/08/02 06:46:42;;;;;;;13.63;12.18;;;;;;;-145.63;51.23;38077.84;5032533;28;20295;-68
2023/08/02 06:49:08;;;;;;;18.60;12.35;;;;;;;-145.63;51.18;38089.56;5028834;28;20068;-68
2023/08/02 06:51:33;;;;;;;16.88;13.15;;;;;;;-145.63;51.26;38056.34;5034796;28;20021;-68
2023/08/02 06:53:59;;;;;;;13.32;11.90;;;;;;;-145.63;50.79;38097.41;5033162;28;20084;-68
2023/08/02 06:56:25;;;;;;;16.45;13.20;;;;;;;-145.63;50.93;37987.91;5034022;28;20022;-68
2023/08/02 06:58:51;;;;;;;16.35;12.30;;;;;;;-145.63;50.75;38011.38;5028503;28;20034;-69
2023/08/02 07:01:19;;;;;;;14.75;13.32;;;;;;;-145.63;49.92;38077.84;5025396;28;20034;-68
2023/08/02 07:03:45;;;;;;;15.30;12.80;;;;;;;-145.63;49.81;38009.41;5027378;28;20166;-68
2023/08/02 07:06:13;;;;;;;15.65;10.80;;;;;;;-145.63;50.34;37952.72;5032794;28;20211;-69
2023/08/02 07:08:39;;;;;;;17.33;13.20;;;;;;;-145.63;50.37;37976.19;5032494;28;20025;-69
2023/08/02 07:11:06;;;;;;;16.98;11.57;;;;;;;-145.63;50.22;37913.63;5032626;28;20038;-69
2023/08/02 07:13:33;;;;;;;14.30;12.82;;;;;;;-145.63;49.57;38011.38;5050771;28;20226;-69
2023/08/02 07:15:59;;;;;;;16.05;13.65;;;;;;;-145.63;48.52;38003.56;5030978;28;20079;-69
2023/08/02 07:18:25;;;;;;;14.65;11.82;;;;;;;-145.63;49.33;37991.81;5028426;28;20026;-68
2023/08/02 07:20:50;;;;;;;13.77;12.23;;;;;;;-145.63;49.11;37960.53;5023323;28;20032;-68
2023/08/02 07:23:16;;;;;;;13.90;11.68;;;;;;;-145.63;48.78;37933.16;5038682;28;20056;-69
2023/08/02 07:25:42;;;;;;;12.38;11.27;;;;;;;-145.63;48.88;37966.41;5035085;28;20026;-68
2023/08/02 07:28:07;;;;;;;14.20;10.65;;;;;;;-145.63;49.19;37966.41;5023813;28;20041;-70
2023/08/02 07:30:33;;;;;;;12.45;10.90;;;;;;;-145.63;48.64;37991.81;5024603;28;20049;-70
2023/08/02 07:32:59;;;;;;;11.50;10.35;;;;;;;-145.63;48.83;37942.94;5038364;28;20028;-68
2023/08/02 07:35:24;;;;;;;12.02;10.65;;;;;;;-145.63;49.48;37941.00;5029460;28;20026;-69
2023/08/02 07:37:50;;;;;;;18.08;11.35;;;;;;;-145.63;49.25;37919.47;5035132;28;20052;-68
2023/08/02 07:40:16;;;;;;;10.20;9.27;;;;;;;-145.63;48.61;37942.94;5025315;28;20195;-68
2023/08/02 07:42:42;;;;;;;10.48;9.02;;;;;;;-145.63;48.52;37946.84;5042777;28;20317;-69
2023/08/02 07:45:09;;;;;;;8.95;8.10;;;;;;;-145.63;48.76;38064.16;5042216;28;20214;-69
2023/08/02 07:47:37;;;;;;;9.05;8.15;;;;;;;-145.63;48.77;37929.25;5029007;28;20344;-69
2023/08/02 07:50:03;;;;;;;9.02;8.20;;;;;;;-145.63;47.72;37888.22;5030683;28;20036;-69
2023/08/02 07:52:29;;;;;;;8.07;7.28;;;;;;;-145.63;48.27;37831.50;5035840;28;20029;-68
2023/08/02 07:54:56;;;;;;;9.02;8.05;;;;;;;-145.63;48.13;37778.72;5041724;28;20036;-69
2023/08/02 07:57:27;;;;;;;8.45;7.68;;;;;;;-145.63;48.38;37819.78;5036992;28;20028;-70
2023/08/02 07:59:53;;;;;;;8.40;7.60;;;;;;;-145.63;47.78;37815.88;5038733;28;20041;-69
2023/08/02 08:02:19;;;;;;;7.97;7.18;;;;;;;-145.63;45.74;37839.31;5038137;28;20024;-69
2023/08/02 08:04:45;;;;;;;9.70;8.25;;;;;;;-145.63;46.63;37772.84;5035350;28;20053;-68
2023/08/02 08:07:11;;;;;;;8.77;7.88;;;;;;;-145.63;45.55;37716.16;5034932;28;20079;-69
2023/08/02 08:09:37;;;;;;;8.27;7.57;;;;;;;-145.63;46.27;37743.53;5035189;28;20026;-68
2023/08/02 08:12:04;;;;;;;8.93;7.10;;;;;;;-145.63;46.25;37733.75;5037584;28;20025;-68
2023/08/02 08:14:31;;;;;;;7.45;6.75;;;;;;;-145.63;46.17;37704.44;5041210;28;20025;-69
2023/08/02 08:16:58;;;;;;;9.35;8.27;;;;;;;-145.63;46.38;37673.16;5034953;28;20025;-68
2023/08/02 08:19:25;;;;;;;9.20;8.00;;;;;;;-145.63;46.12;37690.75;5036015;28;20037;-69
2023/08/02 08:21:51;;;;;;;8.25;7.45;;;;;;;-145.63;45.38;37679.03;5036136;28;20037;-69
2023/08/02 08:24:17;;;;;;;10.57;7.82;;;;;;;-145.63;45.29;37735.72;5035950;28;20337;-70
2023/08/02 08:26:43;;;;;;;10.02;8.15;;;;;;;-145.63;44.35;37661.44;5034992;28;20033;-69
2023/08/02 08:29:08;;;;;;;9.25;7.97;;;;;;;-145.63;44.45;37667.28;5050955;28;20022;-68
2023/08/02 08:31:34;;;;;;;9.98;7.78;;;;;;;-145.63;43.53;37604.72;5034162;28;20030;-70
2023/08/02 08:34:00;;;;;;;9.02;7.40;;;;;;;-145.63;43.74;37610.59;5034318;28;20046;-69
2023/08/02 08:36:31;;;;;;;8.35;7.43;;;;;;;-145.63;43.42;37634.06;5036429;28;20036;-68
2023/08/02 08:38:57;;;;;;;8.02;7.13;;;;;;;-145.63;43.64;37661.44;5028803;28;20057;-69
2023/08/02 08:41:23;;;;;;;8.45;7.72;;;;;;;-145.63;44.43;37663.38;5035429;28;20249;-68
2023/08/02 08:43:49;;;;;;;9.63;8.68;;;;;;;-145.63;44.37;37725.94;5035735;28;20014;-70
2023/08/02 08:46:15;;;;;;;9.43;8.32;;;;;;;-145.63;44.82;37798.28;5035471;28;20109;-70
2023/08/02 08:48:42;;;;;;;10.18;9.15;;;;;;;-145.63;45.17;37831.50;5032994;28;20044;-71
2023/08/02 08:51:12;;;;;;;10.18;9.10;;;;;;;-145.63;45.72;37839.31;5036569;28;20029;-70
2023/08/02 08:53:44;;;;;;;9.48;8.57;;;;;;;-145.63;45.16;37810.00;5033048;28;20017;-71
2023/08/02 08:56:10;;;;;;;10.18;8.98;;;;;;;-145.63;45.05;37784.59;5036445;28;20235;-68
2023/08/02 08:58:37;;;;;;;9.98;8.95;;;;;;;-145.63;44.79;37827.59;5045837;28;20302;-69
2023/08/02 09:01:05;;;;;;;10.20;9.13;;;;;;;-145.63;44.23;37747.44;5045862;28;20096;-69
2023/08/02 09:03:34;;;;;;;10.48;8.25;;;;;;;-145.63;44.21;37682.94;5032312;28;20041;-68
2023/08/02 09:06:03;;;;;;;10.32;9.05;;;;;;;-145.63;44.89;37694.66;5040907;28;20392;-67
2023/08/02 09:08:29;;;;;;;9.30;8.40;;;;;;;-145.63;44.17;37768.94;5029647;28;20021;-67
2023/08/02 09:10:55;;;;;;;9.98;9.00;;;;;;;-145.63;43.95;37657.50;5031582;28;20083;-67
2023/08/02 09:13:27;;;;;;;9.73;8.82;;;;;;;-145.63;44.01;37647.75;5031989;28;20037;-66
2023/08/02 09:16:09;;;;;;;9.30;8.40;;;;;;;-145.63;42.20;37575.41;5042049;28;20029;-67
2023/08/02 09:18:45;;;;;;;9.35;8.48;;;;;;;-145.63;41.41;37593.00;5026375;28;20026;-67
2023/08/02 09:21:14;;;;;;;8.00;7.30;;;;;;;-145.63;41.47;37526.53;5045367;28;20299;-67
2023/08/02 09:23:47;;;;;;;8.75;7.75;;;;;;;-145.63;41.78;37510.91;5027480;28;20030;-66
2023/08/02 09:26:18;;;;;;;8.60;7.72;;;;;;;-145.63;41.86;37530.44;5039447;28;20230;-66
2023/08/02 09:29:00;;;;;;;9.10;8.27;;;;;;;-145.63;41.32;37501.13;5035082;28;20041;-66
2023/08/02 09:31:28;;;;;;;8.82;8.02;;;;;;;-145.63;41.22;37528.50;5032675;28;20039;-66
2023/08/02 09:33:54;;;;;;;8.75;7.85;;;;;;;-145.63;41.46;37440.53;5042043;28;20032;-66
2023/08/02 09:36:31;;;;;;;7.75;6.93;;;;;;;-145.63;40.39;37516.75;5025255;28;20053;-65
2023/08/02 09:39:09;;;;;;;7.95;7.15;;;;;;;-145.63;40.02;36764.22;5025248;28;20068;-66
2023/08/02 09:41:35;;;;;;;8.32;7.53;;;;;;;-145.63;39.93;37334.97;5042038;28;20033;-66
2023/08/02 09:44:01;;;;;;;7.80;7.10;;;;;;;-145.63;39.74;37293.91;5033354;28;20325;-67
2023/08/02 09:46:33;;;;;;;7.30;6.60;;;;;;;-145.63;38.64;37272.41;5025147;28;20064;-65
2023/08/02 09:49:00;;;;;;;7.40;6.38;;;;;;;-145.63;38.09;37387.75;5028664;28;20357;-66
2023/08/02 09:51:43;;;;;;;6.63;6.13;;;;;;;-145.63;38.79;37409.25;5044922;28;20105;-67
2023/08/02 09:54:11;;;;;;;6.22;5.72;;;;;;;-145.63;39.29;37366.25;5025065;28;20026;-67
2023/08/02 09:56:39;;;;;;;6.13;5.63;;;;;;;-145.63;39.67;37428.78;5041997;28;20051;-65
2023/08/02 09:59:06;;;;;;;6.63;5.90;;;;;;;-145.63;40.09;37440.53;5044827;28;20218;-66
2023/08/02 10:01:33;;;;;;;7.13;5.90;;;;;;;-145.63;39.78;37395.56;5044624;28;20025;-68
2023/08/02 10:04:03;;;;;;;5.88;5.20;;;;;;;-145.63;39.96;37395.56;5041186;28;20052;-67
2023/08/02 10:06:37;;;;;;;6.05;5.55;;;;;;;-145.63;39.69;37487.44;5024608;28;20072;-66
2023/08/02 10:09:05;;;;;;;5.63;5.13;;;;;;;-145.63;39.34;37397.53;5024895;28;20097;-67
2023/08/02 10:11:56;;;;;;;7.15;5.78;;;;;;;-145.63;39.95;37299.78;5040670;28;20066;-67
2023/08/02 10:14:22;;;;;;;6.70;5.40;;;;;;;-145.63;39.27;37391.66;5029383;28;20076;-66
2023/08/02 10:16:48;;;;;;;5.43;4.88;;;;;;;-145.63;38.86;37379.94;5034436;28;20044;-67
2023/08/02 10:19:17;;;;;;;6.13;5.53;;;;;;;-145.63;38.76;37409.25;5038811;28;20033;-67
2023/08/02 10:21:44;;;;;;;5.85;5.30;;;;;;;-145.63;38.94;37385.78;5025423;28;20357;-67
2023/08/02 10:24:16;;;;;;;6.90;5.82;;;;;;;-145.63;38.96;37383.84;5044669;28;20429;-67
2023/08/02 10:26:43;;;;;;;5.70;5.18;;;;;;;-145.63;37.89;37424.88;5041906;28;20255;-66
2023/08/02 10:29:10;;;;;;;5.70;5.20;;;;;;;-145.63;37.57;37389.69;5039059;28;20033;-67
2023/08/02 10:31:36;;;;;;;7.13;5.90;;;;;;;-145.63;37.93;37295.88;5035816;28;20030;-67
2023/08/02 10:34:36;;;;;;;6.30;5.80;;;;;;;-145.63;37.10;37415.13;5027856;28;20036;-66
2023/08/02 10:37:03;;;;;;;5.97;5.47;;;;;;;-145.63;36.83;37405.34;5040223;28;20085;-66
2023/08/02 10:39:47;;;;;;;5.60;5.20;;;;;;;-145.63;36.51;37381.88;5024356;28;20025;-66
2023/08/02 10:42:13;;;;;;;6.20;5.47;;;;;;;-145.63;37.68;37295.88;5041547;28;20041;-66
2023/08/02 10:45:02;;;;;;;5.90;5.30;;;;;;;-145.63;37.71;37248.97;5043662;28;20167;-67
2023/08/02 10:47:31;;;;;;;;;;;;;;;-145.63;37.19;37190.31;5020732;28;20061;-67
2023/08/02 10:49:58;;;;;;;5.53;5.03;;;;;;;-145.63;37.80;37164.91;5034702;28;19971;-66
2023/08/02 10:52:44;;;;;;;6.07;5.57;;;;;;;-145.63;37.54;37178.59;5037291;28;20068;-67
2023/08/02 10:55:13;;;;;;;5.88;5.38;;;;;;;-145.63;37.42;37346.69;5028412;28;20029;-67
2023/08/02 10:58:07;;;;;;;5.93;5.32;;;;;;;-145.63;37.43;37325.19;5043488;28;20039;-66
2023/08/02 11:00:37;;;;;;;6.18;4.82;;;;;;;-145.63;37.02;37307.59;5042506;28;20318;-66
2023/08/02 11:03:03;;;;;;;6.13;5.03;;;;;;;-145.63;37.37;37288.06;5042618;28;20053;-66
2023/08/02 11:05:43;;;;;;;4.95;4.55;;;;;;;-145.63;37.04;36658.69;5028610;28;20030;-67
2023/08/02 11:08:10;;;;;;;4.80;4.40;;;;;;;-145.63;35.53;37176.63;5023825;28;20033;-66